Time;durP1;ratioP1;P1;durP2;ratioP2;P2;SDS_P1;SDS_P2;PMS_P1;PMS_P2;Temp;Humidity;BMP_temperature;BMP_pressure;BME280_temperature;BME280_humidity;BME280_pressure;Samples;Min_cycle;Max_cycle;Signal;HPM_P1;HPM_P2
2024/01/17 00:00:19;;;;;;;8.15;4.13;;;;;;;;;;5087282;28;20113;-69
2024/01/17 00:02:48;;;;;;;6.47;3.95;;;;;;;;;;5082483;28;20210;-63
2024/01/17 00:05:17;;;;;;;5.40;3.80;;;;;;;;;;5086016;28;20044;-71
2024/01/17 00:07:45;;;;;;;7.93;4.90;;;;;;;;;;5084737;28;20144;-65
2024/01/17 00:10:16;;;;;;;5.82;3.50;;;;;;;;;;5084495;28;20413;-63
2024/01/17 00:12:44;;;;;;;7.43;3.67;;;;;;;;;;5084407;28;20119;-62
2024/01/17 00:15:13;;;;;;;6.22;4.15;;;;;;;;;;5075948;28;20452;-64
2024/01/17 00:17:41;;;;;;;6.70;3.97;;;;;;;;;;5083978;28;20040;-63
2024/01/17 00:20:10;;;;;;;5.82;4.15;;;;;;;;;;5083511;28;20040;-68
2024/01/17 00:22:38;;;;;;;7.10;4.45;;;;;;;;;;5078226;28;20389;-62
2024/01/17 00:25:08;;;;;;;6.28;3.83;;;;;;;;;;5086695;28;20108;-63
2024/01/17 00:27:38;;;;;;;12.18;4.32;;;;;;;;;;5087567;28;20052;-67
2024/01/17 00:30:07;;;;;;;7.07;3.75;;;;;;;;;;5080343;28;20048;-68
2024/01/17 00:32:36;;;;;;;7.35;4.55;;;;;;;;;;5084918;28;20044;-64
2024/01/17 00:35:05;;;;;;;6.70;4.38;;;;;;;;;;5082559;28;20132;-63
2024/01/17 00:37:33;;;;;;;5.82;3.90;;;;;;;;;;5077923;28;20097;-63
2024/01/17 00:40:02;;;;;;;8.30;4.50;;;;;;;;;;5082982;28;20052;-70
2024/01/17 00:42:30;;;;;;;5.38;4.32;;;;;;;;;;5084362;28;20045;-63
2024/01/17 00:45:00;;;;;;;7.57;4.18;;;;;;;;;;5084189;28;20129;-63
2024/01/17 00:47:28;;;;;;;8.07;4.53;;;;;;;;;;5086137;28;20051;-66
2024/01/17 00:49:57;;;;;;;8.35;4.22;;;;;;;;;;5082259;28;20479;-64
2024/01/17 00:52:25;;;;;;;8.98;4.78;;;;;;;;;;5074456;28;20082;-64
2024/01/17 00:54:54;;;;;;;7.43;4.25;;;;;;;;;;5080791;28;20150;-68
2024/01/17 00:57:22;;;;;;;8.13;4.63;;;;;;;;;;5082363;28;20056;-68
2024/01/17 00:59:51;;;;;;;8.23;4.90;;;;;;;;;;5080285;28;20042;-63
2024/01/17 01:02:21;;;;;;;6.25;4.70;;;;;;;;;;5087447;28;20048;-62
2024/01/17 01:04:50;;;;;;;8.05;4.30;;;;;;;;;;5088261;28;20504;-65
2024/01/17 01:07:19;;;;;;;9.13;4.75;;;;;;;;;;5085775;28;20496;-64
2024/01/17 01:09:47;;;;;;;8.75;5.50;;;;;;;;;;5083506;28;20052;-66
2024/01/17 01:12:16;;;;;;;11.10;4.88;;;;;;;;;;5088907;28;20101;-62
2024/01/17 01:14:44;;;;;;;8.02;5.07;;;;;;;;;;5079018;28;20044;-67
2024/01/17 01:17:13;;;;;;;8.68;4.45;;;;;;;;;;5086725;28;20519;-69
2024/01/17 01:19:42;;;;;;;9.82;4.63;;;;;;;;;;5088682;28;20044;-69
2024/01/17 01:22:11;;;;;;;10.68;5.80;;;;;;;;;;5089845;28;20064;-63
2024/01/17 01:24:40;;;;;;;7.28;4.15;;;;;;;;;;5082874;28;20503;-63
2024/01/17 01:27:08;;;;;;;7.78;4.45;;;;;;;;;;5077788;28;20045;-62
2024/01/17 01:29:36;;;;;;;6.00;3.55;;;;;;;;;;5089999;28;20049;-64
2024/01/17 01:32:05;;;;;;;8.82;4.20;;;;;;;;;;5088731;28;20688;-64
2024/01/17 01:34:33;;;;;;;7.13;4.13;;;;;;;;;;5083957;28;20055;-66
2024/01/17 01:37:03;;;;;;;6.80;4.07;;;;;;;;;;5088460;28;20299;-62
2024/01/17 01:39:31;;;;;;;6.85;4.50;;;;;;;;;;5088722;28;20473;-66
2024/01/17 01:42:00;;;;;;;7.80;4.30;;;;;;;;;;5090043;28;20496;-65
2024/01/17 01:44:29;;;;;;;7.20;4.60;;;;;;;;;;5085216;28;20134;-63
2024/01/17 01:46:58;;;;;;;10.52;4.47;;;;;;;;;;5085557;28;20048;-68
2024/01/17 01:49:27;;;;;;;9.73;5.07;;;;;;;;;;5083485;28;20044;-62
2024/01/17 01:51:55;;;;;;;5.75;3.55;;;;;;;;;;5084187;28;20048;-61
2024/01/17 01:54:25;;;;;;;5.47;3.58;;;;;;;;;;5086390;28;20501;-61
2024/01/17 01:56:56;;;;;;;6.32;3.92;;;;;;;;;;5087948;28;20459;-70
2024/01/17 01:59:24;;;;;;;6.03;3.95;;;;;;;;;;5084390;28;20129;-66
2024/01/17 02:01:53;;;;;;;10.82;4.32;;;;;;;;;;5090456;28;20044;-66
2024/01/17 02:04:22;;;;;;;6.85;4.32;;;;;;;;;;5088175;28;20045;-61
2024/01/17 02:06:51;;;;;;;11.52;4.22;;;;;;;;;;5086385;28;20485;-64
2024/01/17 02:09:19;;;;;;;6.28;3.60;;;;;;;;;;5084735;28;20383;-64
2024/01/17 02:11:50;;;;;;;6.20;3.90;;;;;;;;;;5090110;28;20056;-64
2024/01/17 02:14:19;;;;;;;6.18;3.20;;;;;;;;;;5079186;28;20041;-61
2024/01/17 02:16:48;;;;;;;4.90;3.20;;;;;;;;;;5074763;28;20044;-64
2024/01/17 02:19:18;;;;;;;5.07;3.45;;;;;;;;;;5086054;28;20079;-65
2024/01/17 02:21:46;;;;;;;5.22;3.42;;;;;;;;;;5089630;28;20072;-63
2024/01/17 02:24:16;;;;;;;7.00;3.45;;;;;;;;;;5087927;28;20491;-64
2024/01/17 02:26:45;;;;;;;8.18;3.65;;;;;;;;;;5088248;28;20485;-71
2024/01/17 02:29:13;;;;;;;5.55;3.45;;;;;;;;;;5083059;28;20078;-62
2024/01/17 02:31:43;;;;;;;5.45;3.33;;;;;;;;;;5081433;28;20040;-63
2024/01/17 02:34:12;;;;;;;6.65;3.80;;;;;;;;;;5085102;28;20154;-62
2024/01/17 02:36:41;;;;;;;8.43;3.97;;;;;;;;;;5087834;28;20052;-62
2024/01/17 02:39:10;;;;;;;5.45;3.72;;;;;;;;;;5088023;28;20047;-62
2024/01/17 02:41:40;;;;;;;4.70;2.92;;;;;;;;;;5086133;28;20489;-61
2024/01/17 02:44:08;;;;;;;8.70;3.42;;;;;;;;;;5087896;28;20097;-65
2024/01/17 02:46:36;;;;;;;6.60;3.88;;;;;;;;;;5078146;28;20090;-74
2024/01/17 02:49:05;;;;;;;5.65;3.55;;;;;;;;;;5088189;28;20060;-64
2024/01/17 02:51:33;;;;;;;6.07;3.03;;;;;;;;;;5079447;28;20047;-65
2024/01/17 02:54:02;;;;;;;7.88;3.13;;;;;;;;;;5087760;28;20058;-66
2024/01/17 02:56:30;;;;;;;4.72;2.90;;;;;;;;;;5088939;28;20043;-65
2024/01/17 02:59:00;;;;;;;5.10;3.22;;;;;;;;;;5087728;28;20055;-65
2024/01/17 03:01:28;;;;;;;9.10;3.92;;;;;;;;;;5087668;28;20045;-63
2024/01/17 03:03:57;;;;;;;6.32;3.47;;;;;;;;;;5084140;28;20044;-61
2024/01/17 03:06:26;;;;;;;4.43;3.13;;;;;;;;;;5089061;28;20051;-61
2024/01/17 03:08:55;;;;;;;3.58;2.88;;;;;;;;;;5086501;28;20319;-61
2024/01/17 03:11:23;;;;;;;5.93;2.95;;;;;;;;;;5083733;28;20047;-62
2024/01/17 03:13:52;;;;;;;7.18;3.47;;;;;;;;;;5081639;28;20055;-64
2024/01/17 03:16:21;;;;;;;5.80;3.58;;;;;;;;;;5084919;28;20278;-63
2024/01/17 03:18:50;;;;;;;5.68;3.45;;;;;;;;;;5075769;28;20040;-65
2024/01/17 03:21:19;;;;;;;4.40;2.88;;;;;;;;;;5089088;28;20056;-65
2024/01/17 03:23:47;;;;;;;4.40;3.25;;;;;;;;;;5086938;28;20470;-61
2024/01/17 03:26:15;;;;;;;4.00;2.97;;;;;;;;;;5088295;28;20135;-62
2024/01/17 03:28:44;;;;;;;4.28;3.17;;;;;;;;;;5087451;28;20072;-61
2024/01/17 03:31:12;;;;;;;5.05;3.38;;;;;;;;;;5086108;28;20136;-68
2024/01/17 03:33:42;;;;;;;4.95;3.28;;;;;;;;;;5081941;28;20518;-62
2024/01/17 03:36:10;;;;;;;4.32;2.58;;;;;;;;;;5087376;28;20056;-62
2024/01/17 03:38:40;;;;;;;5.50;3.03;;;;;;;;;;5085958;28;20146;-68
2024/01/17 03:41:08;;;;;;;3.80;2.65;;;;;;;;;;5087137;28;20283;-65
2024/01/17 03:43:36;;;;;;;5.05;3.15;;;;;;;;;;5079845;28;20048;-61
2024/01/17 03:46:05;;;;;;;4.53;3.42;;;;;;;;;;5084436;28;20044;-61
2024/01/17 03:48:34;;;;;;;4.38;2.70;;;;;;;;;;5082519;28;20044;-64
2024/01/17 03:51:04;;;;;;;3.90;2.95;;;;;;;;;;5087409;28;20503;-64
2024/01/17 03:53:32;;;;;;;4.70;2.50;;;;;;;;;;5082470;28;20105;-62
2024/01/17 03:56:01;;;;;;;5.35;3.15;;;;;;;;;;5088283;28;20048;-62
2024/01/17 03:58:29;;;;;;;2.97;2.42;;;;;;;;;;5082972;28;20109;-62
2024/01/17 04:01:02;;;;;;;2.75;2.50;;;;;;;;;;5085852;28;20044;-72
2024/01/17 04:03:30;;;;;;;5.82;2.80;;;;;;;;;;5086304;28;20522;-66
2024/01/17 04:05:59;;;;;;;3.35;2.72;;;;;;;;;;5086388;28;20105;-62
2024/01/17 04:08:29;;;;;;;5.10;3.10;;;;;;;;;;5084132;28;20044;-62
2024/01/17 04:10:58;;;;;;;5.72;2.75;;;;;;;;;;5086051;28;20413;-62
2024/01/17 04:13:26;;;;;;;3.90;2.42;;;;;;;;;;5083509;28;20067;-65
2024/01/17 04:15:55;;;;;;;3.90;2.50;;;;;;;;;;5083046;28;20141;-66
2024/01/17 04:18:23;;;;;;;3.25;2.35;;;;;;;;;;5087673;28;20059;-62
2024/01/17 04:20:52;;;;;;;2.95;2.33;;;;;;;;;;5082258;28;20409;-67
2024/01/17 04:23:20;;;;;;;3.17;2.50;;;;;;;;;;5085725;28;20056;-62
2024/01/17 04:25:50;;;;;;;3.38;2.70;;;;;;;;;;5082572;28;20049;-65
2024/01/17 04:28:18;;;;;;;3.72;2.55;;;;;;;;;;5081851;28;20336;-63
2024/01/17 04:30:47;;;;;;;4.53;2.95;;;;;;;;;;5080132;28;20144;-62
2024/01/17 04:33:16;;;;;;;3.95;2.65;;;;;;;;;;5089188;28;20044;-62
2024/01/17 04:35:44;;;;;;;8.43;2.90;;;;;;;;;;5082517;28;20040;-62
2024/01/17 04:38:13;;;;;;;8.73;3.40;;;;;;;;;;5089783;28;20050;-64
2024/01/17 04:40:41;;;;;;;6.10;2.95;;;;;;;;;;5079127;28;20044;-67
2024/01/17 04:43:11;;;;;;;6.45;2.40;;;;;;;;;;5085172;28;20075;-64
2024/01/17 04:45:40;;;;;;;4.20;2.72;;;;;;;;;;5088245;28;20040;-66
2024/01/17 04:48:11;;;;;;;6.65;2.78;;;;;;;;;;5091473;28;20044;-62
2024/01/17 04:50:40;;;;;;;5.47;2.15;;;;;;;;;;5087212;28;20050;-66
2024/01/17 04:53:10;;;;;;;5.40;2.53;;;;;;;;;;5089179;28;20500;-62
2024/01/17 04:55:39;;;;;;;3.95;2.22;;;;;;;;;;5077333;28;20084;-62
2024/01/17 04:58:08;;;;;;;8.82;2.60;;;;;;;;;;5081969;28;20417;-62
2024/01/17 05:00:37;;;;;;;4.53;2.63;;;;;;;;;;5083748;28;20589;-66
2024/01/17 05:03:06;;;;;;;4.75;2.53;;;;;;;;;;5082590;28;20047;-69
2024/01/17 05:05:35;;;;;;;3.10;1.90;;;;;;;;;;5082214;28;20037;-66
2024/01/17 05:08:03;;;;;;;2.15;1.88;;;;;;;;;;5089575;28;20527;-64
2024/01/17 05:10:32;;;;;;;4.28;2.58;;;;;;;;;;5082259;28;20048;-63
2024/01/17 05:13:00;;;;;;;10.02;2.40;;;;;;;;;;5087824;28;20570;-63
2024/01/17 05:15:28;;;;;;;4.50;1.80;;;;;;;;;;5084864;28;20664;-66
2024/01/17 05:17:58;;;;;;;2.05;1.80;;;;;;;;;;5089202;28;20135;-69
2024/01/17 05:20:27;;;;;;;3.70;2.00;;;;;;;;;;5090254;28;20040;-63
2024/01/17 05:23:12;;;;;;;4.38;2.05;;;;;;;;;;5090493;28;20079;-66
2024/01/17 05:25:40;;;;;;;6.18;2.03;;;;;;;;;;5088356;28;20462;-66
2024/01/17 05:28:11;;;;;;;3.90;2.25;;;;;;;;;;5090597;28;20551;-66
2024/01/17 05:30:39;;;;;;;5.65;2.17;;;;;;;;;;5085044;28;20052;-68
2024/01/17 05:33:09;;;;;;;5.10;1.70;;;;;;;;;;5090752;28;20580;-63
2024/01/17 05:35:38;;;;;;;3.10;2.25;;;;;;;;;;5087373;28;20036;-62
2024/01/17 05:38:07;;;;;;;1.85;1.63;;;;;;;;;;5083806;28;20063;-71
2024/01/17 05:40:35;;;;;;;4.75;2.20;;;;;;;;;;5088772;28;20071;-70
2024/01/17 05:43:04;;;;;;;3.92;1.85;;;;;;;;;;5082006;28;20090;-67
2024/01/17 05:45:33;;;;;;;8.73;2.53;;;;;;;;;;5086203;28;20051;-62
2024/01/17 05:48:01;;;;;;;3.70;1.75;;;;;;;;;;5085626;28;20048;-63
2024/01/17 05:50:31;;;;;;;6.68;2.33;;;;;;;;;;5091458;28;20400;-65
2024/01/17 05:52:59;;;;;;;2.35;1.95;;;;;;;;;;5089264;28;20380;-63
2024/01/17 05:55:31;;;;;;;4.45;1.80;;;;;;;;;;5087087;28;20055;-63
2024/01/17 05:58:00;;;;;;;5.28;2.00;;;;;;;;;;5086237;28;20040;-73
2024/01/17 06:00:29;;;;;;;2.28;1.52;;;;;;;;;;5078798;28;20085;-62
2024/01/17 06:05:52;;;;;;;3.55;1.63;;;;;;;;;;5082672;28;20397;-64
2024/01/17 06:08:21;;;;;;;8.65;2.45;;;;;;;;;;5087369;28;20139;-62
2024/01/17 06:10:49;;;;;;;2.95;1.70;;;;;;;;;;5081529;28;20040;-63
2024/01/17 06:13:18;;;;;;;4.00;2.03;;;;;;;;;;5087811;28;20044;-62
2024/01/17 06:16:08;;;;;;;4.50;2.10;;;;;;;;;;5087863;28;20040;-62
2024/01/17 06:18:45;;;;;;;4.97;2.25;;;;;;;;;;5091071;28;20058;-71
2024/01/17 06:21:16;;;;;;;5.75;2.35;;;;;;;;;;5083069;28;20086;-61
2024/01/17 06:23:45;;;;;;;3.15;1.90;;;;;;;;;;5081842;28;20040;-64
2024/01/17 06:26:13;;;;;;;2.63;1.88;;;;;;;;;;5084813;28;20044;-66
2024/01/17 06:28:41;;;;;;;3.05;2.10;;;;;;;;;;5086279;28;20090;-67
2024/01/17 06:31:10;;;;;;;6.07;2.25;;;;;;;;;;5088363;28;20117;-63
2024/01/17 06:33:39;;;;;;;3.38;2.13;;;;;;;;;;5088491;28;20054;-63
2024/01/17 06:36:08;;;;;;;10.20;2.33;;;;;;;;;;5086572;28;20054;-66
2024/01/17 06:38:38;;;;;;;5.47;2.78;;;;;;;;;;5085355;28;20032;-69
2024/01/17 06:41:07;;;;;;;10.70;2.92;;;;;;;;;;5083632;28;20055;-68
2024/01/17 06:43:36;;;;;;;7.90;2.97;;;;;;;;;;5077198;28;20143;-61
2024/01/17 06:46:06;;;;;;;5.97;2.53;;;;;;;;;;5088772;28;20043;-69
2024/01/17 06:48:36;;;;;;;6.05;2.65;;;;;;;;;;5087050;28;20044;-60
2024/01/17 06:51:13;;;;;;;5.45;2.60;;;;;;;;;;5085802;28;20047;-62
2024/01/17 06:53:43;;;;;;;8.23;2.75;;;;;;;;;;5086610;28;20067;-62
2024/01/17 06:56:12;;;;;;;3.33;2.60;;;;;;;;;;5080642;28;20645;-63
2024/01/17 06:58:41;;;;;;;7.57;2.65;;;;;;;;;;5087020;28;20052;-60
2024/01/17 07:01:10;;;;;;;4.75;2.70;;;;;;;;;;5075124;28;20102;-63
2024/01/17 07:03:39;;;;;;;6.22;2.63;;;;;;;;;;5088490;28;20044;-63
2024/01/17 07:06:07;;;;;;;7.07;3.25;;;;;;;;;;5088230;28;20075;-61
2024/01/17 07:08:36;;;;;;;6.10;3.15;;;;;;;;;;5086216;28;20040;-68
2024/01/17 07:11:06;;;;;;;4.30;3.03;;;;;;;;;;5085791;28;20052;-61
2024/01/17 07:13:34;;;;;;;4.95;2.70;;;;;;;;;;5073274;28;20094;-64
2024/01/17 07:16:03;;;;;;;6.95;3.08;;;;;;;;;;5089082;28;20060;-66
2024/01/17 07:18:33;;;;;;;4.63;3.20;;;;;;;;;;5086477;28;20359;-67
2024/01/17 07:21:06;;;;;;;7.60;3.10;;;;;;;;;;5081230;28;20097;-62
2024/01/17 07:23:34;;;;;;;4.85;2.58;;;;;;;;;;5083765;28;20052;-62
2024/01/17 07:26:03;;;;;;;6.95;2.83;;;;;;;;;;5073961;28;20048;-67
2024/01/17 07:28:33;;;;;;;7.10;3.10;;;;;;;;;;5086492;28;20464;-66
2024/01/17 07:31:01;;;;;;;3.50;2.80;;;;;;;;;;5076462;28;20052;-65
2024/01/17 07:33:29;;;;;;;14.35;3.10;;;;;;;;;;5080406;28;20449;-60
2024/01/17 07:35:58;;;;;;;5.35;3.22;;;;;;;;;;5087794;28;20461;-68
2024/01/17 07:38:27;;;;;;;5.13;3.15;;;;;;;;;;5083329;28;20123;-63
2024/01/17 07:40:56;;;;;;;4.95;2.90;;;;;;;;;;5086810;28;20032;-61
2024/01/17 07:43:25;;;;;;;5.75;3.45;;;;;;;;;;5071516;28;20133;-61
2024/01/17 07:45:54;;;;;;;5.88;3.42;;;;;;;;;;5085138;28;20102;-61
2024/01/17 07:48:23;;;;;;;6.28;2.80;;;;;;;;;;5078432;28;20044;-64
2024/01/17 07:50:52;;;;;;;5.25;2.58;;;;;;;;;;5088373;28;20154;-65
2024/01/17 07:53:21;;;;;;;4.15;2.67;;;;;;;;;;5089292;28;20052;-63
2024/01/17 07:55:49;;;;;;;5.28;2.65;;;;;;;;;;5086420;28;20056;-60
2024/01/17 07:58:18;;;;;;;9.88;2.60;;;;;;;;;;5079429;28;20048;-60
2024/01/17 08:00:47;;;;;;;2.67;2.17;;;;;;;;;;5082438;28;20051;-60
2024/01/17 08:03:17;;;;;;;3.22;2.25;;;;;;;;;;5081102;28;20146;-65
2024/01/17 08:05:45;;;;;;;3.80;2.25;;;;;;;;;;5081170;28;20066;-67
2024/01/17 08:08:14;;;;;;;4.53;2.45;;;;;;;;;;5088589;28;20417;-59
2024/01/17 08:10:42;;;;;;;5.10;2.42;;;;;;;;;;5080111;28;20102;-66
2024/01/17 08:13:12;;;;;;;3.70;2.30;;;;;;;;;;5084391;28;20048;-62
2024/01/17 08:15:41;;;;;;;4.60;2.67;;;;;;;;;;5087310;28;20433;-62
2024/01/17 08:18:09;;;;;;;7.75;2.85;;;;;;;;;;5091260;28;20048;-68
2024/01/17 08:20:39;;;;;;;5.90;2.63;;;;;;;;;;5093612;28;20121;-62
2024/01/17 08:23:08;;;;;;;5.50;2.53;;;;;;;;;;5092424;28;20040;-62
2024/01/17 08:25:36;;;;;;;6.68;2.67;;;;;;;;;;5092484;28;20485;-62
2024/01/17 08:28:05;;;;;;;4.80;2.67;;;;;;;;;;5092362;28;20471;-64
2024/01/17 08:30:33;;;;;;;7.78;2.90;;;;;;;;;;5090093;28;20051;-66
2024/01/17 08:33:02;;;;;;;8.18;2.50;;;;;;;;;;5092729;28;20075;-66
2024/01/17 08:35:31;;;;;;;6.55;3.03;;;;;;;;;;5083709;28;20492;-61
2024/01/17 08:38:01;;;;;;;3.80;2.72;;;;;;;;;;5090296;28;20050;-64
2024/01/17 08:40:31;;;;;;;7.07;2.08;;;;;;;;;;5091093;28;20379;-63
2024/01/17 08:43:03;;;;;;;3.40;2.72;;;;;;;;;;5083186;28;20471;-65
2024/01/17 08:45:31;;;;;;;6.47;2.70;;;;;;;;;;5091300;28;20082;-61
2024/01/17 08:48:00;;;;;;;4.35;2.78;;;;;;;;;;5092790;28;20058;-61
2024/01/17 08:50:28;;;;;;;8.95;2.75;;;;;;;;;;5092068;28;20169;-61
2024/01/17 08:52:57;;;;;;;9.05;3.25;;;;;;;;;;5089056;28;20051;-64
2024/01/17 08:55:27;;;;;;;7.55;2.78;;;;;;;;;;5091597;28;20055;-67
2024/01/17 08:57:56;;;;;;;5.82;3.15;;;;;;;;;;5091051;28;20040;-61
2024/01/17 09:00:24;;;;;;;5.05;2.90;;;;;;;;;;5080011;28;20543;-61
2024/01/17 09:02:53;;;;;;;6.32;3.00;;;;;;;;;;5084196;28;20109;-62
2024/01/17 09:05:22;;;;;;;7.72;3.20;;;;;;;;;;5091602;28;20044;-62
2024/01/17 09:07:51;;;;;;;7.03;2.97;;;;;;;;;;5089526;28;20052;-66
2024/01/17 09:10:20;;;;;;;4.88;2.42;;;;;;;;;;5090341;28;20051;-63
2024/01/17 09:12:50;;;;;;;8.20;3.05;;;;;;;;;;5083970;28;20043;-61
2024/01/17 09:15:23;;;;;;;7.53;3.03;;;;;;;;;;5077985;28;20048;-65
2024/01/17 09:17:52;;;;;;;5.10;3.28;;;;;;;;;;5085668;28;20570;-66
2024/01/17 09:20:21;;;;;;;5.05;2.63;;;;;;;;;;5079147;28;20130;-64
2024/01/17 09:22:49;;;;;;;6.43;2.70;;;;;;;;;;5077141;28;20051;-61
2024/01/17 09:25:18;;;;;;;5.20;2.83;;;;;;;;;;5088438;28;20489;-62
2024/01/17 09:27:46;;;;;;;6.47;2.55;;;;;;;;;;5089497;28;20052;-64
2024/01/17 09:30:16;;;;;;;4.55;2.65;;;;;;;;;;5080862;28;20048;-66
2024/01/17 09:32:47;;;;;;;3.25;2.50;;;;;;;;;;5083804;28;20071;-65
2024/01/17 09:35:16;;;;;;;8.05;2.92;;;;;;;;;;5084926;28;20056;-62
2024/01/17 09:37:45;;;;;;;5.32;3.35;;;;;;;;;;5078927;28;20063;-72
2024/01/17 09:40:14;;;;;;;5.20;2.78;;;;;;;;;;5077053;28;20052;-63
2024/01/17 09:42:43;;;;;;;6.90;3.00;;;;;;;;;;5083865;28;20125;-66
2024/01/17 09:45:12;;;;;;;5.13;2.78;;;;;;;;;;5089424;28;20048;-67
2024/01/17 09:47:43;;;;;;;7.20;3.15;;;;;;;;;;5089870;28;20575;-63
2024/01/17 09:50:11;;;;;;;6.47;2.65;;;;;;;;;;5080491;28;20424;-61
2024/01/17 09:52:42;;;;;;;3.80;2.55;;;;;;;;;;5089693;28;20507;-62
2024/01/17 09:55:10;;;;;;;5.88;3.22;;;;;;;;;;5048203;28;1152915;-69
2024/01/17 09:57:43;;;;;;;4.55;2.80;;;;;;;;;;5089053;28;20048;-66
2024/01/17 10:00:12;;;;;;;4.88;2.92;;;;;;;;;;5077384;28;20101;-65
2024/01/17 10:02:46;;;;;;;5.47;2.97;;;;;;;;;;5083245;28;20059;-64
2024/01/17 10:05:15;;;;;;;7.32;3.78;;;;;;;;;;5086424;28;20094;-70
2024/01/17 10:07:45;;;;;;;5.13;3.10;;;;;;;;;;5081498;28;20048;-69
2024/01/17 10:10:13;;;;;;;5.13;2.75;;;;;;;;;;5089226;28;20047;-65
2024/01/17 10:12:42;;;;;;;4.30;2.90;;;;;;;;;;5084972;28;20058;-70
2024/01/17 10:15:13;;;;;;;4.40;2.78;;;;;;;;;;5088357;28;20055;-66
2024/01/17 10:17:42;;;;;;;2.90;2.35;;;;;;;;;;5076449;28;20037;-70
2024/01/17 10:20:12;;;;;;;6.97;2.97;;;;;;;;;;5089613;28;20135;-69
2024/01/17 10:22:41;;;;;;;6.80;3.30;;;;;;;;;;5085790;28;20040;-65
2024/01/17 10:25:11;;;;;;;6.50;3.00;;;;;;;;;;5089794;28;20047;-67
2024/01/17 10:27:40;;;;;;;6.38;3.05;;;;;;;;;;5089973;28;20501;-72
2024/01/17 10:30:11;;;;;;;5.72;3.25;;;;;;;;;;5088313;28;20097;-67
2024/01/17 10:32:41;;;;;;;4.75;3.42;;;;;;;;;;5082769;28;20047;-74
2024/01/17 10:35:11;;;;;;;6.63;2.60;;;;;;;;;;5077415;28;20074;-69
2024/01/17 10:37:41;;;;;;;5.95;2.83;;;;;;;;;;5084824;28;20055;-66
2024/01/17 10:40:11;;;;;;;3.60;2.92;;;;;;;;;;5086055;28;20056;-72
2024/01/17 10:42:40;;;;;;;4.03;2.97;;;;;;;;;;5090022;28;20093;-65
2024/01/17 10:45:20;;;;;;;3.80;2.80;;;;;;;;;;5090331;28;20302;-69
2024/01/17 10:47:48;;;;;;;4.65;2.55;;;;;;;;;;5078796;28;20060;-64
2024/01/17 10:50:20;;;;;;;4.30;2.50;;;;;;;;;;5080101;28;20050;-64
2024/01/17 10:52:52;;;;;;;4.50;2.80;;;;;;;;;;5089531;28;20452;-66
2024/01/17 10:55:22;;;;;;;6.43;3.25;;;;;;;;;;5089890;28;20048;-66
2024/01/17 10:57:52;;;;;;;4.40;2.95;;;;;;;;;;5087402;28;20044;-64
2024/01/17 11:00:29;;;;;;;6.53;2.47;;;;;;;;;;5078539;28;20076;-69
2024/01/17 11:02:59;;;;;;;5.18;2.78;;;;;;;;;;5082485;28;20047;-65
2024/01/17 11:05:31;;;;;;;3.65;2.67;;;;;;;;;;5082165;28;20051;-67
2024/01/17 11:08:02;;;;;;;4.65;2.88;;;;;;;;;;5076557;28;20059;-68
2024/01/17 11:10:30;;;;;;;3.72;2.55;;;;;;;;;;5083255;28;20059;-65
2024/01/17 11:12:59;;;;;;;6.03;3.22;;;;;;;;;;5088315;28;20097;-64
2024/01/17 11:15:29;;;;;;;5.05;2.95;;;;;;;;;;5089733;28;20048;-67
2024/01/17 11:17:58;;;;;;;3.80;2.70;;;;;;;;;;5089666;28;20097;-69
2024/01/17 11:20:26;;;;;;;4.00;2.78;;;;;;;;;;5088464;28;20048;-74
2024/01/17 11:23:01;;;;;;;2.78;2.47;;;;;;;;;;5084164;28;20040;-63
2024/01/17 11:25:35;;;;;;;6.07;2.60;;;;;;;;;;5089253;28;20052;-67
2024/01/17 11:28:09;;;;;;;5.90;2.95;;;;;;;;;;5084651;28;20055;-66
2024/01/17 11:30:43;;;;;;;5.75;2.92;;;;;;;;;;5089648;28;20048;-68
2024/01/17 11:33:14;;;;;;;8.35;2.95;;;;;;;;;;5084899;28;20124;-63
2024/01/17 11:35:43;;;;;;;5.55;2.85;;;;;;;;;;5078583;28;20076;-64
2024/01/17 11:38:16;;;;;;;4.78;2.70;;;;;;;;;;5084088;28;20056;-71
2024/01/17 11:40:46;;;;;;;6.70;3.20;;;;;;;;;;5088998;28;20113;-64
2024/01/17 11:43:15;;;;;;;6.40;2.60;;;;;;;;;;5088932;28;20104;-66
2024/01/17 11:45:44;;;;;;;3.78;2.50;;;;;;;;;;5086381;28;20127;-63
2024/01/17 11:48:13;;;;;;;3.95;2.40;;;;;;;;;;5088376;28;20175;-63
2024/01/17 11:50:41;;;;;;;4.38;2.80;;;;;;;;;;5076884;28;20050;-72
2024/01/17 11:53:10;;;;;;;4.95;3.10;;;;;;;;;;5088950;28;20416;-71
2024/01/17 11:55:50;;;;;;;4.75;2.58;;;;;;;;;;5088268;28;20439;-64
2024/01/17 11:58:19;;;;;;;5.00;2.10;;;;;;;;;;5076021;28;20048;-62
2024/01/17 12:00:51;;;;;;;7.03;2.58;;;;;;;;;;5088099;28;20052;-62
2024/01/17 12:03:31;;;;;;;3.35;2.67;;;;;;;;;;5087508;28;20140;-66
2024/01/17 12:06:00;;;;;;;3.22;2.35;;;;;;;;;;5084771;28;20040;-68
2024/01/17 12:08:29;;;;;;;3.55;2.25;;;;;;;;;;5087079;28;20044;-63
2024/01/17 12:11:00;;;;;;;4.53;2.50;;;;;;;;;;5074416;28;20098;-65
2024/01/17 12:13:28;;;;;;;3.20;1.95;;;;;;;;;;5086782;28;20048;-70
2024/01/17 12:15:57;;;;;;;4.22;2.65;;;;;;;;;;5088949;28;20101;-67
2024/01/17 12:18:27;;;;;;;3.55;2.25;;;;;;;;;;5083963;28;20501;-67
2024/01/17 12:20:56;;;;;;;5.72;2.40;;;;;;;;;;5087453;28;20044;-66
2024/01/17 12:23:25;;;;;;;2.78;2.17;;;;;;;;;;5089212;28;20145;-69
2024/01/17 12:25:55;;;;;;;3.92;2.45;;;;;;;;;;5085374;28;20044;-67
2024/01/17 12:28:25;;;;;;;3.72;2.33;;;;;;;;;;5086441;28;20060;-66
2024/01/17 12:30:58;;;;;;;2.92;1.98;;;;;;;;;;5070744;28;20040;-73
2024/01/17 12:33:26;;;;;;;3.75;2.28;;;;;;;;;;5084763;28;20040;-64
2024/01/17 12:35:56;;;;;;;3.90;2.22;;;;;;;;;;5088565;28;20155;-64
2024/01/17 12:38:39;;;;;;;2.47;2.03;;;;;;;;;;5080536;28;20059;-68
2024/01/17 12:41:10;;;;;;;;;;;;;;;;;;5079242;28;20079;-65
2024/01/17 12:43:40;;;;;;;3.58;1.98;;;;;;;;;;5081180;28;19966;-66
2024/01/17 12:46:08;;;;;;;4.35;1.70;;;;;;;;;;5082480;28;20109;-66
2024/01/17 12:48:38;;;;;;;5.28;2.35;;;;;;;;;;5075697;28;20539;-64
2024/01/17 12:51:07;;;;;;;2.80;1.65;;;;;;;;;;5089291;28;20083;-66
2024/01/17 12:53:39;;;;;;;2.97;2.13;;;;;;;;;;5088418;28;20047;-71
2024/01/17 12:56:11;;;;;;;3.05;2.05;;;;;;;;;;5088822;28;20048;-67
2024/01/17 12:58:41;;;;;;;2.15;1.95;;;;;;;;;;5102613;28;20500;-65
2024/01/17 13:01:11;;;;;;;5.78;2.35;;;;;;;;;;5090158;28;20102;-67
2024/01/17 13:03:40;;;;;;;5.55;2.30;;;;;;;;;;5090024;28;20044;-68
2024/01/17 13:06:11;;;;;;;5.40;2.40;;;;;;;;;;5085825;28;20420;-68
2024/01/17 13:08:40;;;;;;;3.50;2.67;;;;;;;;;;5083661;28;20409;-67
2024/01/17 13:11:16;;;;;;;4.68;2.50;;;;;;;;;;5087279;28;20064;-65
2024/01/17 13:13:46;;;;;;;2.42;1.73;;;;;;;;;;5086362;28;20044;-67
2024/01/17 13:16:15;;;;;;;3.63;2.13;;;;;;;;;;5090978;28;20047;-71
2024/01/17 13:18:44;;;;;;;2.85;2.20;;;;;;;;;;5086101;28;20097;-66
2024/01/17 13:21:14;;;;;;;3.22;2.30;;;;;;;;;;5084708;28;20064;-69
2024/01/17 13:23:42;;;;;;;4.25;2.38;;;;;;;;;;5090376;28;20556;-71
2024/01/17 13:26:11;;;;;;;2.75;2.03;;;;;;;;;;5087436;28;20044;-75
2024/01/17 13:28:40;;;;;;;3.17;2.10;;;;;;;;;;5092881;28;20051;-70
2024/01/17 13:31:10;;;;;;;4.05;2.30;;;;;;;;;;5091781;28;20051;-64
2024/01/17 13:33:39;;;;;;;3.45;2.03;;;;;;;;;;5090859;28;20059;-64
2024/01/17 13:36:08;;;;;;;4.03;2.03;;;;;;;;;;5086794;28;20048;-68
2024/01/17 13:38:37;;;;;;;3.15;2.38;;;;;;;;;;5087555;28;20040;-65
2024/01/17 13:41:05;;;;;;;6.25;2.20;;;;;;;;;;5092439;28;20121;-70
2024/01/17 13:43:34;;;;;;;5.45;2.10;;;;;;;;;;5093274;28;20048;-65
2024/01/17 13:46:02;;;;;;;5.68;2.45;;;;;;;;;;5091754;28;20397;-66
2024/01/17 13:48:33;;;;;;;5.10;1.98;;;;;;;;;;5084804;28;20079;-69
2024/01/17 13:51:01;;;;;;;4.97;2.10;;;;;;;;;;5092512;28;20051;-70
2024/01/17 13:53:32;;;;;;;3.72;2.58;;;;;;;;;;5084481;28;20044;-69
2024/01/17 13:56:04;;;;;;;2.60;1.70;;;;;;;;;;5091997;28;20323;-66
2024/01/17 13:58:33;;;;;;;3.53;1.80;;;;;;;;;;5087048;28;20120;-66
2024/01/17 14:01:04;;;;;;;3.80;1.55;;;;;;;;;;5083303;28;20052;-68
2024/01/17 14:03:36;;;;;;;3.53;2.38;;;;;;;;;;5089561;28;20090;-69
2024/01/17 14:06:06;;;;;;;4.40;2.20;;;;;;;;;;5088657;28;20050;-65
2024/01/17 14:08:34;;;;;;;1.65;1.35;;;;;;;;;;5086198;28;20097;-64
2024/01/17 14:11:03;;;;;;;2.55;1.85;;;;;;;;;;5086484;28;21154;-65
2024/01/17 14:13:32;;;;;;;2.30;1.75;;;;;;;;;;5081213;28;20044;-66
2024/01/17 14:16:00;;;;;;;2.88;1.73;;;;;;;;;;5082625;28;20353;-70
2024/01/17 14:18:28;;;;;;;3.58;1.98;;;;;;;;;;5082757;28;20389;-70
2024/01/17 14:20:59;;;;;;;5.82;2.17;;;;;;;;;;5091076;28;20458;-70
2024/01/17 14:23:27;;;;;;;5.18;2.22;;;;;;;;;;5085816;28;20430;-69
2024/01/17 14:25:56;;;;;;;3.05;1.73;;;;;;;;;;5090323;28;20044;-70
2024/01/17 14:28:24;;;;;;;3.15;1.55;;;;;;;;;;5076497;28;20047;-70
2024/01/17 14:30:53;;;;;;;5.18;2.17;;;;;;;;;;5087031;28;20540;-70
2024/01/17 14:33:22;;;;;;;3.97;1.58;;;;;;;;;;5083150;28;20540;-70
2024/01/17 14:35:51;;;;;;;6.68;2.17;;;;;;;;;;5088683;28;20496;-69
2024/01/17 14:38:22;;;;;;;5.43;1.85;;;;;;;;;;5083994;28;20067;-70
2024/01/17 14:40:50;;;;;;;3.65;2.17;;;;;;;;;;5085788;28;20649;-70
2024/01/17 14:43:19;;;;;;;4.13;2.40;;;;;;;;;;5087884;28;20271;-70
2024/01/17 14:45:48;;;;;;;9.23;2.88;;;;;;;;;;5080840;28;20048;-70
2024/01/17 14:48:16;;;;;;;5.15;2.28;;;;;;;;;;5076929;28;20041;-70
2024/01/17 14:50:45;;;;;;;4.28;3.10;;;;;;;;;;5084731;28;20447;-70
2024/01/17 14:53:16;;;;;;;4.90;2.70;;;;;;;;;;5086391;28;20051;-71
2024/01/17 14:55:46;;;;;;;6.10;3.42;;;;;;;;;;5081373;28;20063;-70
2024/01/17 14:58:14;;;;;;;6.90;2.78;;;;;;;;;;5087816;28;20040;-69